sensor_id;sensor_type;location;lat;lon;timestamp;P1;durP1;ratioP1;P2;durP2;ratioP2
71290;SDS011;59073;51.994;4.448;2023-03-13T00:01:46;5.03;;;3.76;;
71290;SDS011;59073;51.994;4.448;2023-03-13T00:04:13;5.01;;;3.87;;
71290;SDS011;59073;51.994;4.448;2023-03-13T00:06:38;4.71;;;3.66;;
71290;SDS011;59073;51.994;4.448;2023-03-13T00:09:06;4.13;;;3.31;;
71290;SDS011;59073;51.994;4.448;2023-03-13T00:11:34;4.20;;;3.37;;
71290;SDS011;59073;51.994;4.448;2023-03-13T00:14:00;4.28;;;3.48;;
71290;SDS011;59073;51.994;4.448;2023-03-13T00:16:27;4.17;;;3.41;;
71290;SDS011;59073;51.994;4.448;2023-03-13T00:18:54;3.92;;;3.30;;
71290;SDS011;59073;51.994;4.448;2023-03-13T00:21:22;3.60;;;3.11;;
71290;SDS011;59073;51.994;4.448;2023-03-13T00:23:49;3.42;;;3.00;;
71290;SDS011;59073;51.994;4.448;2023-03-13T00:26:17;3.49;;;3.09;;
71290;SDS011;59073;51.994;4.448;2023-03-13T00:28:44;3.50;;;3.09;;
71290;SDS011;59073;51.994;4.448;2023-03-13T00:33:44;3.71;;;3.14;;
71290;SDS011;59073;51.994;4.448;2023-03-13T00:36:16;3.50;;;3.01;;
71290;SDS011;59073;51.994;4.448;2023-03-13T00:38:43;3.54;;;3.09;;
71290;SDS011;59073;51.994;4.448;2023-03-13T00:41:11;3.13;;;2.80;;
71290;SDS011;59073;51.994;4.448;2023-03-13T00:43:39;3.37;;;3.04;;
71290;SDS011;59073;51.994;4.448;2023-03-13T00:46:07;3.35;;;3.00;;
71290;SDS011;59073;51.994;4.448;2023-03-13T00:48:33;3.16;;;2.84;;
71290;SDS011;59073;51.994;4.448;2023-03-13T00:50:59;3.13;;;2.90;;
71290;SDS011;59073;51.994;4.448;2023-03-13T00:53:24;3.09;;;2.95;;
71290;SDS011;59073;51.994;4.448;2023-03-13T00:55:52;3.50;;;3.29;;
71290;SDS011;59073;51.994;4.448;2023-03-13T00:58:32;3.52;;;3.34;;
71290;SDS011;59073;51.994;4.448;2023-03-13T01:01:07;3.22;;;3.07;;
71290;SDS011;59073;51.994;4.448;2023-03-13T01:03:43;3.30;;;3.19;;
71290;SDS011;59073;51.994;4.448;2023-03-13T01:06:13;3.73;;;3.57;;
71290;SDS011;59073;51.994;4.448;2023-03-13T01:08:40;3.58;;;3.45;;
71290;SDS011;59073;51.994;4.448;2023-03-13T01:11:07;3.49;;;3.45;;
71290;SDS011;59073;51.994;4.448;2023-03-13T01:13:35;3.87;;;3.83;;
71290;SDS011;59073;51.994;4.448;2023-03-13T01:16:09;4.36;;;4.35;;
71290;SDS011;59073;51.994;4.448;2023-03-13T01:18:37;4.17;;;4.17;;
71290;SDS011;59073;51.994;4.448;2023-03-13T01:21:05;4.46;;;4.46;;
71290;SDS011;59073;51.994;4.448;2023-03-13T01:23:31;4.30;;;4.30;;
71290;SDS011;59073;51.994;4.448;2023-03-13T01:25:57;4.52;;;4.52;;
71290;SDS011;59073;51.994;4.448;2023-03-13T01:28:23;5.03;;;5.02;;
71290;SDS011;59073;51.994;4.448;2023-03-13T01:30:50;4.80;;;4.80;;
71290;SDS011;59073;51.994;4.448;2023-03-13T01:33:16;4.86;;;4.86;;
71290;SDS011;59073;51.994;4.448;2023-03-13T01:35:42;4.50;;;4.50;;
71290;SDS011;59073;51.994;4.448;2023-03-13T01:38:08;4.92;;;4.92;;
71290;SDS011;59073;51.994;4.448;2023-03-13T01:40:43;4.98;;;4.98;;
71290;SDS011;59073;51.994;4.448;2023-03-13T01:43:23;5.25;;;5.25;;
71290;SDS011;59073;51.994;4.448;2023-03-13T01:48:29;6.06;;;6.06;;
71290;SDS011;59073;51.994;4.448;2023-03-13T01:51:39;5.95;;;5.95;;
71290;SDS011;59073;51.994;4.448;2023-03-13T01:54:09;6.06;;;6.06;;
71290;SDS011;59073;51.994;4.448;2023-03-13T01:56:51;6.08;;;6.08;;
71290;SDS011;59073;51.994;4.448;2023-03-13T01:59:34;5.90;;;5.90;;
71290;SDS011;59073;51.994;4.448;2023-03-13T02:02:06;6.27;;;6.27;;
71290;SDS011;59073;51.994;4.448;2023-03-13T02:04:34;6.26;;;6.26;;
71290;SDS011;59073;51.994;4.448;2023-03-13T02:07:04;5.89;;;5.89;;
71290;SDS011;59073;51.994;4.448;2023-03-13T02:09:36;6.29;;;6.29;;
71290;SDS011;59073;51.994;4.448;2023-03-13T02:12:09;5.50;;;5.50;;
71290;SDS011;59073;51.994;4.448;2023-03-13T02:14:39;4.73;;;4.73;;
71290;SDS011;59073;51.994;4.448;2023-03-13T02:17:09;4.93;;;4.93;;
71290;SDS011;59073;51.994;4.448;2023-03-13T02:19:40;4.83;;;4.83;;
71290;SDS011;59073;51.994;4.448;2023-03-13T02:25:07;4.66;;;4.66;;
71290;SDS011;59073;51.994;4.448;2023-03-13T02:27:43;4.48;;;4.48;;
71290;SDS011;59073;51.994;4.448;2023-03-13T02:30:11;5.52;;;5.52;;
71290;SDS011;59073;51.994;4.448;2023-03-13T02:32:37;5.06;;;5.06;;
71290;SDS011;59073;51.994;4.448;2023-03-13T02:35:05;5.23;;;5.23;;
71290;SDS011;59073;51.994;4.448;2023-03-13T02:37:33;5.04;;;5.04;;
71290;SDS011;59073;51.994;4.448;2023-03-13T02:40:02;4.80;;;4.80;;
71290;SDS011;59073;51.994;4.448;2023-03-13T02:42:34;4.65;;;4.65;;
71290;SDS011;59073;51.994;4.448;2023-03-13T02:45:05;5.23;;;5.23;;
71290;SDS011;59073;51.994;4.448;2023-03-13T02:47:30;4.75;;;4.75;;
71290;SDS011;59073;51.994;4.448;2023-03-13T02:49:56;4.48;;;4.48;;
71290;SDS011;59073;51.994;4.448;2023-03-13T02:52:32;4.29;;;4.29;;
71290;SDS011;59073;51.994;4.448;2023-03-13T02:55:16;3.87;;;3.87;;
71290;SDS011;59073;51.994;4.448;2023-03-13T02:57:48;3.86;;;3.86;;
71290;SDS011;59073;51.994;4.448;2023-03-13T03:00:14;3.81;;;3.81;;
71290;SDS011;59073;51.994;4.448;2023-03-13T03:02:41;3.72;;;3.72;;
71290;SDS011;59073;51.994;4.448;2023-03-13T03:05:07;3.28;;;3.28;;
71290;SDS011;59073;51.994;4.448;2023-03-13T03:07:33;3.05;;;3.05;;
71290;SDS011;59073;51.994;4.448;2023-03-13T03:09:59;3.06;;;3.06;;
71290;SDS011;59073;51.994;4.448;2023-03-13T03:12:24;2.67;;;2.67;;
71290;SDS011;59073;51.994;4.448;2023-03-13T03:14:49;2.73;;;2.73;;
71290;SDS011;59073;51.994;4.448;2023-03-13T03:17:15;2.28;;;2.28;;
71290;SDS011;59073;51.994;4.448;2023-03-13T03:19:40;2.34;;;2.34;;
71290;SDS011;59073;51.994;4.448;2023-03-13T03:22:06;2.05;;;2.05;;
71290;SDS011;59073;51.994;4.448;2023-03-13T03:24:31;2.41;;;2.41;;
71290;SDS011;59073;51.994;4.448;2023-03-13T03:26:56;2.06;;;2.04;;
71290;SDS011;59073;51.994;4.448;2023-03-13T03:29:22;2.45;;;2.43;;
71290;SDS011;59073;51.994;4.448;2023-03-13T03:31:47;2.61;;;2.61;;
71290;SDS011;59073;51.994;4.448;2023-03-13T03:34:13;2.50;;;2.50;;
71290;SDS011;59073;51.994;4.448;2023-03-13T03:36:38;2.94;;;2.94;;
71290;SDS011;59073;51.994;4.448;2023-03-13T03:39:03;2.97;;;2.97;;
71290;SDS011;59073;51.994;4.448;2023-03-13T03:41:29;2.95;;;2.95;;
71290;SDS011;59073;51.994;4.448;2023-03-13T03:43:55;3.28;;;3.28;;
71290;SDS011;59073;51.994;4.448;2023-03-13T03:46:20;3.02;;;3.02;;
71290;SDS011;59073;51.994;4.448;2023-03-13T03:48:46;2.90;;;2.90;;
71290;SDS011;59073;51.994;4.448;2023-03-13T03:51:12;2.67;;;2.67;;
71290;SDS011;59073;51.994;4.448;2023-03-13T03:53:37;2.69;;;2.69;;
71290;SDS011;59073;51.994;4.448;2023-03-13T03:56:03;3.03;;;3.03;;
71290;SDS011;59073;51.994;4.448;2023-03-13T03:58:29;3.39;;;3.39;;
71290;SDS011;59073;51.994;4.448;2023-03-13T04:00:57;3.46;;;3.46;;
71290;SDS011;59073;51.994;4.448;2023-03-13T04:03:23;3.18;;;3.18;;
71290;SDS011;59073;51.994;4.448;2023-03-13T04:05:50;3.46;;;3.46;;
71290;SDS011;59073;51.994;4.448;2023-03-13T04:08:15;3.03;;;3.03;;
71290;SDS011;59073;51.994;4.448;2023-03-13T04:10:42;3.04;;;3.04;;
71290;SDS011;59073;51.994;4.448;2023-03-13T04:13:08;3.20;;;3.20;;
71290;SDS011;59073;51.994;4.448;2023-03-13T04:15:33;3.28;;;3.28;;
71290;SDS011;59073;51.994;4.448;2023-03-13T04:17:59;3.39;;;3.39;;
71290;SDS011;59073;51.994;4.448;2023-03-13T04:20:24;3.81;;;3.81;;
71290;SDS011;59073;51.994;4.448;2023-03-13T04:22:50;3.36;;;3.36;;
71290;SDS011;59073;51.994;4.448;2023-03-13T04:25:15;3.26;;;3.26;;
71290;SDS011;59073;51.994;4.448;2023-03-13T04:27:41;3.16;;;3.16;;
71290;SDS011;59073;51.994;4.448;2023-03-13T04:30:07;3.18;;;3.18;;
71290;SDS011;59073;51.994;4.448;2023-03-13T04:32:33;2.89;;;2.89;;
71290;SDS011;59073;51.994;4.448;2023-03-13T04:34:59;3.22;;;3.22;;
71290;SDS011;59073;51.994;4.448;2023-03-13T04:37:24;3.14;;;3.14;;
71290;SDS011;59073;51.994;4.448;2023-03-13T04:39:50;3.13;;;3.13;;
71290;SDS011;59073;51.994;4.448;2023-03-13T04:42:15;2.88;;;2.88;;
71290;SDS011;59073;51.994;4.448;2023-03-13T04:44:41;3.19;;;3.19;;
71290;SDS011;59073;51.994;4.448;2023-03-13T04:47:06;2.78;;;2.78;;
71290;SDS011;59073;51.994;4.448;2023-03-13T04:49:31;2.99;;;2.99;;
71290;SDS011;59073;51.994;4.448;2023-03-13T04:51:57;2.96;;;2.96;;
71290;SDS011;59073;51.994;4.448;2023-03-13T04:54:22;2.70;;;2.70;;
71290;SDS011;59073;51.994;4.448;2023-03-13T04:56:48;2.73;;;2.73;;
71290;SDS011;59073;51.994;4.448;2023-03-13T04:59:14;2.85;;;2.85;;
71290;SDS011;59073;51.994;4.448;2023-03-13T05:01:40;2.58;;;2.58;;
71290;SDS011;59073;51.994;4.448;2023-03-13T05:04:06;2.73;;;2.71;;
71290;SDS011;59073;51.994;4.448;2023-03-13T05:06:32;2.59;;;2.51;;
71290;SDS011;59073;51.994;4.448;2023-03-13T05:08:58;2.78;;;2.68;;
71290;SDS011;59073;51.994;4.448;2023-03-13T05:11:23;3.02;;;2.89;;
71290;SDS011;59073;51.994;4.448;2023-03-13T05:13:49;2.81;;;2.68;;
71290;SDS011;59073;51.994;4.448;2023-03-13T05:16:14;2.70;;;2.57;;
71290;SDS011;59073;51.994;4.448;2023-03-13T05:18:40;2.86;;;2.72;;
71290;SDS011;59073;51.994;4.448;2023-03-13T05:21:06;2.77;;;2.64;;
71290;SDS011;59073;51.994;4.448;2023-03-13T05:23:31;2.58;;;2.41;;
71290;SDS011;59073;51.994;4.448;2023-03-13T05:25:58;2.92;;;2.70;;
71290;SDS011;59073;51.994;4.448;2023-03-13T05:28:23;2.60;;;2.46;;
71290;SDS011;59073;51.994;4.448;2023-03-13T05:30:49;3.06;;;2.87;;
71290;SDS011;59073;51.994;4.448;2023-03-13T05:33:14;2.73;;;2.54;;
71290;SDS011;59073;51.994;4.448;2023-03-13T05:35:40;2.66;;;2.45;;
71290;SDS011;59073;51.994;4.448;2023-03-13T05:38:06;3.33;;;3.07;;
71290;SDS011;59073;51.994;4.448;2023-03-13T05:40:32;2.67;;;2.50;;
71290;SDS011;59073;51.994;4.448;2023-03-13T05:42:57;2.61;;;2.46;;
71290;SDS011;59073;51.994;4.448;2023-03-13T05:45:23;2.83;;;2.66;;
71290;SDS011;59073;51.994;4.448;2023-03-13T05:47:49;2.50;;;2.34;;
71290;SDS011;59073;51.994;4.448;2023-03-13T05:50:15;2.34;;;2.20;;
71290;SDS011;59073;51.994;4.448;2023-03-13T05:52:40;2.89;;;2.69;;
71290;SDS011;59073;51.994;4.448;2023-03-13T05:55:06;2.71;;;2.51;;
71290;SDS011;59073;51.994;4.448;2023-03-13T05:57:31;2.71;;;2.50;;
71290;SDS011;59073;51.994;4.448;2023-03-13T05:59:57;2.87;;;2.65;;
71290;SDS011;59073;51.994;4.448;2023-03-13T06:02:23;2.70;;;2.47;;
71290;SDS011;59073;51.994;4.448;2023-03-13T06:04:49;2.66;;;2.41;;
71290;SDS011;59073;51.994;4.448;2023-03-13T06:07:14;2.80;;;2.53;;
71290;SDS011;59073;51.994;4.448;2023-03-13T06:09:40;2.78;;;2.53;;
71290;SDS011;59073;51.994;4.448;2023-03-13T06:12:06;2.41;;;2.21;;
71290;SDS011;59073;51.994;4.448;2023-03-13T06:14:32;2.95;;;2.72;;
71290;SDS011;59073;51.994;4.448;2023-03-13T06:16:58;2.67;;;2.50;;
71290;SDS011;59073;51.994;4.448;2023-03-13T06:19:23;2.78;;;2.60;;
71290;SDS011;59073;51.994;4.448;2023-03-13T06:21:49;2.68;;;2.53;;
71290;SDS011;59073;51.994;4.448;2023-03-13T06:24:15;2.77;;;2.61;;
71290;SDS011;59073;51.994;4.448;2023-03-13T06:26:40;2.96;;;2.80;;
71290;SDS011;59073;51.994;4.448;2023-03-13T06:29:06;2.69;;;2.52;;
71290;SDS011;59073;51.994;4.448;2023-03-13T06:31:31;2.99;;;2.81;;
71290;SDS011;59073;51.994;4.448;2023-03-13T06:33:57;3.26;;;3.04;;
71290;SDS011;59073;51.994;4.448;2023-03-13T06:36:22;3.21;;;2.95;;
71290;SDS011;59073;51.994;4.448;2023-03-13T06:38:49;3.17;;;2.95;;
71290;SDS011;59073;51.994;4.448;2023-03-13T06:41:14;3.02;;;2.90;;
71290;SDS011;59073;51.994;4.448;2023-03-13T06:43:40;2.87;;;2.77;;
71290;SDS011;59073;51.994;4.448;2023-03-13T06:46:06;2.70;;;2.64;;
71290;SDS011;59073;51.994;4.448;2023-03-13T06:48:35;2.83;;;2.75;;
71290;SDS011;59073;51.994;4.448;2023-03-13T06:51:01;2.96;;;2.86;;
71290;SDS011;59073;51.994;4.448;2023-03-13T06:53:27;2.55;;;2.49;;
71290;SDS011;59073;51.994;4.448;2023-03-13T06:55:52;2.74;;;2.69;;
71290;SDS011;59073;51.994;4.448;2023-03-13T06:58:17;2.60;;;2.53;;
71290;SDS011;59073;51.994;4.448;2023-03-13T07:00:43;2.99;;;2.91;;
71290;SDS011;59073;51.994;4.448;2023-03-13T07:03:09;2.85;;;2.74;;
71290;SDS011;59073;51.994;4.448;2023-03-13T07:05:35;3.03;;;2.83;;
71290;SDS011;59073;51.994;4.448;2023-03-13T07:08:01;2.64;;;2.48;;
71290;SDS011;59073;51.994;4.448;2023-03-13T07:10:26;2.56;;;2.43;;
71290;SDS011;59073;51.994;4.448;2023-03-13T07:12:52;2.75;;;2.61;;
71290;SDS011;59073;51.994;4.448;2023-03-13T07:15:17;2.84;;;2.72;;
71290;SDS011;59073;51.994;4.448;2023-03-13T07:17:42;2.52;;;2.44;;
71290;SDS011;59073;51.994;4.448;2023-03-13T07:20:08;2.58;;;2.52;;
71290;SDS011;59073;51.994;4.448;2023-03-13T07:22:35;2.29;;;2.23;;
71290;SDS011;59073;51.994;4.448;2023-03-13T07:25:02;2.40;;;2.33;;
71290;SDS011;59073;51.994;4.448;2023-03-13T07:27:28;2.82;;;2.74;;
71290;SDS011;59073;51.994;4.448;2023-03-13T07:29:54;2.16;;;2.11;;
71290;SDS011;59073;51.994;4.448;2023-03-13T07:32:20;2.05;;;2.01;;
71290;SDS011;59073;51.994;4.448;2023-03-13T07:34:46;2.21;;;2.12;;
71290;SDS011;59073;51.994;4.448;2023-03-13T07:37:12;2.45;;;2.33;;
71290;SDS011;59073;51.994;4.448;2023-03-13T07:39:38;2.58;;;2.48;;
71290;SDS011;59073;51.994;4.448;2023-03-13T07:42:04;2.29;;;2.19;;
71290;SDS011;59073;51.994;4.448;2023-03-13T07:44:30;2.10;;;2.01;;
71290;SDS011;59073;51.994;4.448;2023-03-13T07:46:58;2.04;;;1.94;;
71290;SDS011;59073;51.994;4.448;2023-03-13T07:49:24;2.09;;;1.96;;
71290;SDS011;59073;51.994;4.448;2023-03-13T07:51:49;2.23;;;2.10;;
71290;SDS011;59073;51.994;4.448;2023-03-13T07:54:15;2.25;;;2.06;;
71290;SDS011;59073;51.994;4.448;2023-03-13T07:56:40;2.10;;;1.93;;
71290;SDS011;59073;51.994;4.448;2023-03-13T07:59:06;1.94;;;1.80;;
71290;SDS011;59073;51.994;4.448;2023-03-13T08:01:31;1.62;;;1.52;;
71290;SDS011;59073;51.994;4.448;2023-03-13T08:03:57;1.53;;;1.45;;
71290;SDS011;59073;51.994;4.448;2023-03-13T08:06:26;1.66;;;1.56;;
71290;SDS011;59073;51.994;4.448;2023-03-13T08:08:57;1.46;;;1.39;;
71290;SDS011;59073;51.994;4.448;2023-03-13T08:11:24;1.64;;;1.56;;
71290;SDS011;59073;51.994;4.448;2023-03-13T08:13:52;1.82;;;1.74;;
71290;SDS011;59073;51.994;4.448;2023-03-13T08:16:21;1.39;;;1.32;;
71290;SDS011;59073;51.994;4.448;2023-03-13T08:18:50;1.63;;;1.54;;
71290;SDS011;59073;51.994;4.448;2023-03-13T08:21:18;1.72;;;1.62;;
71290;SDS011;59073;51.994;4.448;2023-03-13T08:23:46;1.85;;;1.72;;
71290;SDS011;59073;51.994;4.448;2023-03-13T08:26:13;1.68;;;1.56;;
71290;SDS011;59073;51.994;4.448;2023-03-13T08:28:41;1.61;;;1.50;;
71290;SDS011;59073;51.994;4.448;2023-03-13T08:31:09;1.84;;;1.70;;
71290;SDS011;59073;51.994;4.448;2023-03-13T08:33:36;1.84;;;1.66;;
71290;SDS011;59073;51.994;4.448;2023-03-13T08:36:10;1.84;;;1.64;;
71290;SDS011;59073;51.994;4.448;2023-03-13T08:38:43;1.95;;;1.74;;
71290;SDS011;59073;51.994;4.448;2023-03-13T08:41:10;1.96;;;1.71;;
71290;SDS011;59073;51.994;4.448;2023-03-13T08:43:37;2.09;;;1.81;;
71290;SDS011;59073;51.994;4.448;2023-03-13T08:46:03;2.24;;;1.89;;
71290;SDS011;59073;51.994;4.448;2023-03-13T08:48:28;2.14;;;1.81;;
71290;SDS011;59073;51.994;4.448;2023-03-13T08:51:01;2.18;;;1.86;;
71290;SDS011;59073;51.994;4.448;2023-03-13T08:53:27;2.30;;;1.94;;
71290;SDS011;59073;51.994;4.448;2023-03-13T08:55:53;2.19;;;1.83;;
71290;SDS011;59073;51.994;4.448;2023-03-13T08:58:19;2.59;;;2.09;;
71290;SDS011;59073;51.994;4.448;2023-03-13T09:00:44;2.67;;;2.14;;
71290;SDS011;59073;51.994;4.448;2023-03-13T09:03:10;1.98;;;1.57;;
71290;SDS011;59073;51.994;4.448;2023-03-13T09:05:38;2.37;;;1.87;;
71290;SDS011;59073;51.994;4.448;2023-03-13T09:08:04;2.19;;;1.71;;
71290;SDS011;59073;51.994;4.448;2023-03-13T09:10:33;1.95;;;1.55;;
71290;SDS011;59073;51.994;4.448;2023-03-13T09:12:59;1.95;;;1.57;;
71290;SDS011;59073;51.994;4.448;2023-03-13T09:15:26;1.95;;;1.59;;
71290;SDS011;59073;51.994;4.448;2023-03-13T09:17:52;2.50;;;2.00;;
71290;SDS011;59073;51.994;4.448;2023-03-13T09:20:17;1.94;;;1.54;;
71290;SDS011;59073;51.994;4.448;2023-03-13T09:22:46;2.34;;;1.87;;
71290;SDS011;59073;51.994;4.448;2023-03-13T09:25:12;2.00;;;1.59;;
71290;SDS011;59073;51.994;4.448;2023-03-13T09:27:38;2.49;;;1.97;;
71290;SDS011;59073;51.994;4.448;2023-03-13T09:30:04;2.60;;;2.02;;
71290;SDS011;59073;51.994;4.448;2023-03-13T09:32:31;2.22;;;1.68;;
71290;SDS011;59073;51.994;4.448;2023-03-13T09:34:56;1.95;;;1.45;;
71290;SDS011;59073;51.994;4.448;2023-03-13T09:37:23;2.24;;;1.65;;
71290;SDS011;59073;51.994;4.448;2023-03-13T09:39:48;2.11;;;1.54;;
71290;SDS011;59073;51.994;4.448;2023-03-13T09:42:15;2.34;;;1.70;;
71290;SDS011;59073;51.994;4.448;2023-03-13T09:48:44;2.20;;;1.60;;
71290;SDS011;59073;51.994;4.448;2023-03-13T09:51:02;2.23;;;1.65;;
71290;SDS011;59073;51.994;4.448;2023-03-13T09:53:44;1.64;;;1.24;;
71290;SDS011;59073;51.994;4.448;2023-03-13T09:56:42;1.76;;;1.33;;
71290;SDS011;59073;51.994;4.448;2023-03-13T10:02:02;1.80;;;1.34;;
71290;SDS011;59073;51.994;4.448;2023-03-13T10:04:39;1.70;;;1.26;;
71290;SDS011;59073;51.994;4.448;2023-03-13T10:07:10;1.64;;;1.23;;
71290;SDS011;59073;51.994;4.448;2023-03-13T10:09:39;2.06;;;1.56;;
71290;SDS011;59073;51.994;4.448;2023-03-13T10:14:36;1.62;;;1.24;;
71290;SDS011;59073;51.994;4.448;2023-03-13T10:17:33;1.56;;;1.23;;
71290;SDS011;59073;51.994;4.448;2023-03-13T10:20:20;1.53;;;1.22;;
71290;SDS011;59073;51.994;4.448;2023-03-13T10:22:55;1.78;;;1.41;;
71290;SDS011;59073;51.994;4.448;2023-03-13T10:25:46;2.19;;;1.69;;
71290;SDS011;59073;51.994;4.448;2023-03-13T10:28:12;2.53;;;1.92;;
71290;SDS011;59073;51.994;4.448;2023-03-13T10:30:42;2.35;;;1.77;;
71290;SDS011;59073;51.994;4.448;2023-03-13T10:35:38;2.37;;;1.77;;
71290;SDS011;59073;51.994;4.448;2023-03-13T10:38:14;2.48;;;1.86;;
71290;SDS011;59073;51.994;4.448;2023-03-13T10:40:42;2.82;;;2.09;;
71290;SDS011;59073;51.994;4.448;2023-03-13T10:43:12;2.65;;;1.94;;
71290;SDS011;59073;51.994;4.448;2023-03-13T10:45:44;2.64;;;1.96;;
71290;SDS011;59073;51.994;4.448;2023-03-13T10:48:23;2.36;;;1.78;;
71290;SDS011;59073;51.994;4.448;2023-03-13T10:50:53;2.75;;;2.08;;
71290;SDS011;59073;51.994;4.448;2023-03-13T10:53:23;2.10;;;1.61;;
71290;SDS011;59073;51.994;4.448;2023-03-13T10:56:18;2.17;;;1.69;;
71290;SDS011;59073;51.994;4.448;2023-03-13T10:58:47;2.11;;;1.62;;
71290;SDS011;59073;51.994;4.448;2023-03-13T11:01:17;2.17;;;1.65;;
71290;SDS011;59073;51.994;4.448;2023-03-13T11:03:50;2.99;;;2.28;;
71290;SDS011;59073;51.994;4.448;2023-03-13T11:06:26;2.31;;;1.74;;
71290;SDS011;59073;51.994;4.448;2023-03-13T11:08:59;3.17;;;2.34;;
71290;SDS011;59073;51.994;4.448;2023-03-13T11:11:46;3.20;;;2.31;;
71290;SDS011;59073;51.994;4.448;2023-03-13T11:14:23;3.12;;;2.26;;
71290;SDS011;59073;51.994;4.448;2023-03-13T11:17:23;3.45;;;2.44;;
71290;SDS011;59073;51.994;4.448;2023-03-13T11:23:25;3.98;;;2.77;;
71290;SDS011;59073;51.994;4.448;2023-03-13T11:26:21;3.94;;;2.73;;
71290;SDS011;59073;51.994;4.448;2023-03-13T11:29:13;4.37;;;2.99;;
71290;SDS011;59073;51.994;4.448;2023-03-13T11:32:09;3.56;;;2.38;;
71290;SDS011;59073;51.994;4.448;2023-03-13T11:34:49;4.13;;;2.78;;
71290;SDS011;59073;51.994;4.448;2023-03-13T11:37:20;4.38;;;2.93;;
71290;SDS011;59073;51.994;4.448;2023-03-13T11:48:01;5.70;;;3.67;;
71290;SDS011;59073;51.994;4.448;2023-03-13T11:50:51;5.82;;;3.70;;
71290;SDS011;59073;51.994;4.448;2023-03-13T11:53:39;5.29;;;3.41;;
71290;SDS011;59073;51.994;4.448;2023-03-13T11:56:27;6.05;;;3.99;;
71290;SDS011;59073;51.994;4.448;2023-03-13T12:02:16;5.98;;;3.95;;
71290;SDS011;59073;51.994;4.448;2023-03-13T12:04:56;5.94;;;3.86;;
71290;SDS011;59073;51.994;4.448;2023-03-13T12:10:15;7.03;;;4.48;;
71290;SDS011;59073;51.994;4.448;2023-03-13T12:15:36;6.57;;;4.08;;
71290;SDS011;59073;51.994;4.448;2023-03-13T12:20:46;7.64;;;4.79;;
71290;SDS011;59073;51.994;4.448;2023-03-13T12:26:09;7.11;;;4.60;;
71290;SDS011;59073;51.994;4.448;2023-03-13T12:28:44;6.73;;;4.35;;
71290;SDS011;59073;51.994;4.448;2023-03-13T12:39:41;6.62;;;4.33;;
71290;SDS011;59073;51.994;4.448;2023-03-13T12:45:15;7.05;;;4.48;;
71290;SDS011;59073;51.994;4.448;2023-03-13T12:56:39;6.63;;;4.26;;
71290;SDS011;59073;51.994;4.448;2023-03-13T12:59:32;6.71;;;4.43;;
71290;SDS011;59073;51.994;4.448;2023-03-13T13:02:12;6.90;;;4.60;;
71290;SDS011;59073;51.994;4.448;2023-03-13T13:04:43;6.49;;;4.27;;
71290;SDS011;59073;51.994;4.448;2023-03-13T13:10:00;5.96;;;3.87;;
71290;SDS011;59073;51.994;4.448;2023-03-13T13:12:27;6.22;;;4.13;;
71290;SDS011;59073;51.994;4.448;2023-03-13T13:14:56;6.43;;;4.23;;
71290;SDS011;59073;51.994;4.448;2023-03-13T13:20:31;8.36;;;5.26;;
71290;SDS011;59073;51.994;4.448;2023-03-13T13:23:42;7.01;;;4.38;;
71290;SDS011;59073;51.994;4.448;2023-03-13T13:25:50;7.97;;;4.98;;
71290;SDS011;59073;51.994;4.448;2023-03-13T13:30:45;7.48;;;4.66;;
71290;SDS011;59073;51.994;4.448;2023-03-13T13:38:48;7.77;;;4.85;;
71290;SDS011;59073;51.994;4.448;2023-03-13T13:43:45;8.53;;;5.27;;
71290;SDS011;59073;51.994;4.448;2023-03-13T13:46:22;8.74;;;5.48;;
71290;SDS011;59073;51.994;4.448;2023-03-13T13:51:32;9.16;;;5.66;;
71290;SDS011;59073;51.994;4.448;2023-03-13T13:56:53;7.10;;;4.41;;
71290;SDS011;59073;51.994;4.448;2023-03-13T14:04:33;8.76;;;5.44;;
71290;SDS011;59073;51.994;4.448;2023-03-13T14:07:03;9.03;;;5.55;;
71290;SDS011;59073;51.994;4.448;2023-03-13T14:09:35;8.81;;;5.39;;
71290;SDS011;59073;51.994;4.448;2023-03-13T14:15:08;9.05;;;5.63;;
71290;SDS011;59073;51.994;4.448;2023-03-13T14:17:49;8.50;;;5.19;;
71290;SDS011;59073;51.994;4.448;2023-03-13T14:22:54;9.39;;;5.85;;
71290;SDS011;59073;51.994;4.448;2023-03-13T14:25:23;8.43;;;5.32;;
71290;SDS011;59073;51.994;4.448;2023-03-13T14:27:53;8.07;;;5.05;;
71290;SDS011;59073;51.994;4.448;2023-03-13T14:30:21;8.99;;;5.59;;
71290;SDS011;59073;51.994;4.448;2023-03-13T14:32:49;8.12;;;5.03;;
71290;SDS011;59073;51.994;4.448;2023-03-13T14:35:16;7.72;;;4.81;;
71290;SDS011;59073;51.994;4.448;2023-03-13T14:37:48;7.69;;;4.86;;
71290;SDS011;59073;51.994;4.448;2023-03-13T14:42:46;9.22;;;5.73;;
71290;SDS011;59073;51.994;4.448;2023-03-13T14:45:14;8.65;;;5.27;;
71290;SDS011;59073;51.994;4.448;2023-03-13T14:47:44;8.35;;;5.16;;
71290;SDS011;59073;51.994;4.448;2023-03-13T14:50:11;8.58;;;5.28;;
71290;SDS011;59073;51.994;4.448;2023-03-13T14:52:45;9.65;;;5.94;;
71290;SDS011;59073;51.994;4.448;2023-03-13T14:57:59;6.92;;;4.37;;
71290;SDS011;59073;51.994;4.448;2023-03-13T15:00:39;8.54;;;5.43;;
71290;SDS011;59073;51.994;4.448;2023-03-13T15:03:11;8.63;;;5.48;;
71290;SDS011;59073;51.994;4.448;2023-03-13T15:05:46;8.39;;;5.26;;
71290;SDS011;59073;51.994;4.448;2023-03-13T15:11:35;7.91;;;4.96;;
71290;SDS011;59073;51.994;4.448;2023-03-13T15:17:12;8.65;;;5.40;;
71290;SDS011;59073;51.994;4.448;2023-03-13T15:19:41;9.45;;;5.77;;
71290;SDS011;59073;51.994;4.448;2023-03-13T15:22:11;9.19;;;5.64;;
71290;SDS011;59073;51.994;4.448;2023-03-13T15:24:39;8.62;;;5.37;;
71290;SDS011;59073;51.994;4.448;2023-03-13T15:27:13;8.01;;;4.99;;
71290;SDS011;59073;51.994;4.448;2023-03-13T15:29:40;8.85;;;5.42;;
71290;SDS011;59073;51.994;4.448;2023-03-13T15:32:08;9.07;;;5.56;;
71290;SDS011;59073;51.994;4.448;2023-03-13T15:34:48;7.23;;;4.47;;
71290;SDS011;59073;51.994;4.448;2023-03-13T15:37:15;9.24;;;5.69;;
71290;SDS011;59073;51.994;4.448;2023-03-13T15:39:40;8.72;;;5.36;;
71290;SDS011;59073;51.994;4.448;2023-03-13T15:42:06;8.11;;;4.94;;
71290;SDS011;59073;51.994;4.448;2023-03-13T15:44:32;9.62;;;5.85;;
71290;SDS011;59073;51.994;4.448;2023-03-13T15:46:58;7.68;;;4.72;;
71290;SDS011;59073;51.994;4.448;2023-03-13T15:49:33;8.38;;;5.15;;
71290;SDS011;59073;51.994;4.448;2023-03-13T15:51:59;10.97;;;6.72;;
71290;SDS011;59073;51.994;4.448;2023-03-13T15:54:24;9.86;;;5.96;;
71290;SDS011;59073;51.994;4.448;2023-03-13T15:56:52;7.94;;;4.82;;
71290;SDS011;59073;51.994;4.448;2023-03-13T15:59:18;9.10;;;5.56;;
71290;SDS011;59073;51.994;4.448;2023-03-13T16:01:45;8.56;;;5.20;;
71290;SDS011;59073;51.994;4.448;2023-03-13T16:04:12;8.29;;;5.07;;
71290;SDS011;59073;51.994;4.448;2023-03-13T16:06:37;8.07;;;4.95;;
71290;SDS011;59073;51.994;4.448;2023-03-13T16:09:04;7.37;;;4.57;;
71290;SDS011;59073;51.994;4.448;2023-03-13T16:11:31;7.31;;;4.61;;
71290;SDS011;59073;51.994;4.448;2023-03-13T16:13:57;8.18;;;5.10;;
71290;SDS011;59073;51.994;4.448;2023-03-13T16:16:24;9.10;;;5.64;;
71290;SDS011;59073;51.994;4.448;2023-03-13T16:18:53;9.07;;;5.65;;
71290;SDS011;59073;51.994;4.448;2023-03-13T16:21:21;9.53;;;5.85;;
71290;SDS011;59073;51.994;4.448;2023-03-13T16:23:51;9.70;;;5.86;;
71290;SDS011;59073;51.994;4.448;2023-03-13T16:26:19;9.72;;;5.95;;
71290;SDS011;59073;51.994;4.448;2023-03-13T16:28:50;9.40;;;5.70;;
71290;SDS011;59073;51.994;4.448;2023-03-13T16:31:18;9.64;;;5.76;;
71290;SDS011;59073;51.994;4.448;2023-03-13T16:33:46;8.75;;;5.39;;
71290;SDS011;59073;51.994;4.448;2023-03-13T16:36:26;9.42;;;5.84;;
71290;SDS011;59073;51.994;4.448;2023-03-13T16:38:55;8.11;;;5.05;;
71290;SDS011;59073;51.994;4.448;2023-03-13T16:41:22;9.82;;;6.06;;
71290;SDS011;59073;51.994;4.448;2023-03-13T16:43:49;8.73;;;5.42;;
71290;SDS011;59073;51.994;4.448;2023-03-13T16:48:44;8.02;;;4.94;;
71290;SDS011;59073;51.994;4.448;2023-03-13T16:51:13;9.67;;;5.93;;
71290;SDS011;59073;51.994;4.448;2023-03-13T16:53:42;9.30;;;5.73;;